sensor_id;sensor_type;location;lat;lon;timestamp;pressure;altitude;pressure_sealevel;temperature;humidity
71573;BME280;59408;51.032;9.410;2023-07-31T00:01:10;98678.84;;;15.08;87.08
71573;BME280;59408;51.032;9.410;2023-07-31T00:03:37;98673.75;;;15.06;87.02
71573;BME280;59408;51.032;9.410;2023-07-31T00:06:04;98669.41;;;15.05;87.02
71573;BME280;59408;51.032;9.410;2023-07-31T00:08:30;98665.09;;;15.04;87.36
71573;BME280;59408;51.032;9.410;2023-07-31T00:10:58;98665.88;;;15.05;87.52
71573;BME280;59408;51.032;9.410;2023-07-31T00:13:25;98667.47;;;15.06;85.61
71573;BME280;59408;51.032;9.410;2023-07-31T00:15:51;98665.53;;;15.10;85.76
71573;BME280;59408;51.032;9.410;2023-07-31T00:18:18;98655.72;;;15.13;85.06
71573;BME280;59408;51.032;9.410;2023-07-31T00:20:45;98663.97;;;15.13;84.83
71573;BME280;59408;51.032;9.410;2023-07-31T00:23:12;98659.69;;;15.15;85.20
71573;BME280;59408;51.032;9.410;2023-07-31T00:25:39;98656.16;;;15.15;85.13
71573;BME280;59408;51.032;9.410;2023-07-31T00:28:07;98643.16;;;15.12;85.86
71573;BME280;59408;51.032;9.410;2023-07-31T00:30:33;98649.53;;;15.19;84.60
71573;BME280;59408;51.032;9.410;2023-07-31T00:33:00;98638.91;;;15.18;84.83
71573;BME280;59408;51.032;9.410;2023-07-31T00:35:27;98643.63;;;15.21;83.23
71573;BME280;59408;51.032;9.410;2023-07-31T00:37:53;98641.31;;;15.23;83.22
71573;BME280;59408;51.032;9.410;2023-07-31T00:40:20;98647.22;;;15.25;83.30
71573;BME280;59408;51.032;9.410;2023-07-31T00:42:46;98650.38;;;15.27;83.08
71573;BME280;59408;51.032;9.410;2023-07-31T00:45:14;98643.72;;;15.28;82.75
71573;BME280;59408;51.032;9.410;2023-07-31T00:47:41;98643.69;;;15.24;83.67
71573;BME280;59408;51.032;9.410;2023-07-31T00:50:08;98643.69;;;15.24;83.63
71573;BME280;59408;51.032;9.410;2023-07-31T00:52:35;98635.44;;;15.24;83.24
71573;BME280;59408;51.032;9.410;2023-07-31T00:55:03;98635.06;;;15.26;82.76
71573;BME280;59408;51.032;9.410;2023-07-31T00:57:30;98632.31;;;15.26;82.60
71573;BME280;59408;51.032;9.410;2023-07-31T00:59:58;98631.56;;;15.29;82.52
71573;BME280;59408;51.032;9.410;2023-07-31T01:02:26;98631.56;;;15.29;83.26
71573;BME280;59408;51.032;9.410;2023-07-31T01:04:53;98629.19;;;15.27;83.10
71573;BME280;59408;51.032;9.410;2023-07-31T01:07:24;98624.13;;;15.29;82.71
71573;BME280;59408;51.032;9.410;2023-07-31T01:10:00;98630.00;;;15.31;82.61
71573;BME280;59408;51.032;9.410;2023-07-31T01:12:30;98622.59;;;15.35;82.41
71573;BME280;59408;51.032;9.410;2023-07-31T01:15:05;98618.28;;;15.38;82.05
71573;BME280;59408;51.032;9.410;2023-07-31T01:17:33;98613.97;;;15.40;81.60
71573;BME280;59408;51.032;9.410;2023-07-31T01:20:03;98608.09;;;15.42;81.35
71573;BME280;59408;51.032;9.410;2023-07-31T01:22:45;98603.41;;;15.42;81.46
71573;BME280;59408;51.032;9.410;2023-07-31T01:25:28;98605.34;;;15.42;80.78
71573;BME280;59408;51.032;9.410;2023-07-31T01:28:02;98599.44;;;15.40;81.45
71573;BME280;59408;51.032;9.410;2023-07-31T01:30:33;98604.94;;;15.40;81.64
71573;BME280;59408;51.032;9.410;2023-07-31T01:33:00;98594.34;;;15.42;81.62
71573;BME280;59408;51.032;9.410;2023-07-31T01:35:27;98592.41;;;15.42;81.35
71573;BME280;59408;51.032;9.410;2023-07-31T01:37:54;98591.59;;;15.42;81.28
71573;BME280;59408;51.032;9.410;2023-07-31T01:40:21;98596.72;;;15.43;81.13
71573;BME280;59408;51.032;9.410;2023-07-31T01:42:47;98597.09;;;15.42;81.12
71573;BME280;59408;51.032;9.410;2023-07-31T01:45:16;98589.25;;;15.40;80.80
71573;BME280;59408;51.032;9.410;2023-07-31T01:47:42;98586.88;;;15.39;81.24
71573;BME280;59408;51.032;9.410;2023-07-31T01:50:09;98597.84;;;15.39;81.10
71573;BME280;59408;51.032;9.410;2023-07-31T01:52:36;98589.63;;;15.39;80.87
71573;BME280;59408;51.032;9.410;2023-07-31T01:55:03;98591.59;;;15.38;81.82
71573;BME280;59408;51.032;9.410;2023-07-31T01:57:30;98592.00;;;15.40;81.34
71573;BME280;59408;51.032;9.410;2023-07-31T01:59:56;98586.88;;;15.39;81.10
71573;BME280;59408;51.032;9.410;2023-07-31T02:02:24;98588.44;;;15.40;80.83
71573;BME280;59408;51.032;9.410;2023-07-31T02:04:51;98585.69;;;15.40;81.23
71573;BME280;59408;51.032;9.410;2023-07-31T02:07:18;98588.06;;;15.38;81.32
71573;BME280;59408;51.032;9.410;2023-07-31T02:09:44;98587.28;;;15.37;81.27
71573;BME280;59408;51.032;9.410;2023-07-31T02:12:11;98583.31;;;15.35;81.37
71573;BME280;59408;51.032;9.410;2023-07-31T02:14:37;98583.31;;;15.35;81.74
71573;BME280;59408;51.032;9.410;2023-07-31T02:17:05;98573.50;;;15.34;82.06
71573;BME280;59408;51.032;9.410;2023-07-31T02:19:33;98572.28;;;15.31;81.94
71573;BME280;59408;51.032;9.410;2023-07-31T02:21:59;98571.91;;;15.33;81.81
71573;BME280;59408;51.032;9.410;2023-07-31T02:24:26;98568.75;;;15.31;82.65
71573;BME280;59408;51.032;9.410;2023-07-31T02:26:52;98567.56;;;15.28;82.99
71573;BME280;59408;51.032;9.410;2023-07-31T02:29:19;98569.53;;;15.28;82.85
71573;BME280;59408;51.032;9.410;2023-07-31T02:31:45;98564.00;;;15.24;83.30
71573;BME280;59408;51.032;9.410;2023-07-31T02:34:12;98563.22;;;15.24;83.74
71573;BME280;59408;51.032;9.410;2023-07-31T02:36:40;98569.09;;;15.22;84.24
71573;BME280;59408;51.032;9.410;2023-07-31T02:39:07;98573.78;;;15.22;84.67
71573;BME280;59408;51.032;9.410;2023-07-31T02:41:34;98576.94;;;15.20;85.72
71573;BME280;59408;51.032;9.410;2023-07-31T02:44:00;98572.59;;;15.19;85.81
71573;BME280;59408;51.032;9.410;2023-07-31T02:46:27;98569.78;;;15.12;86.39
71573;BME280;59408;51.032;9.410;2023-07-31T02:48:53;98564.69;;;15.11;87.43
71573;BME280;59408;51.032;9.410;2023-07-31T02:51:20;98559.19;;;15.11;86.85
71573;BME280;59408;51.032;9.410;2023-07-31T02:53:48;98566.22;;;15.08;87.16
71573;BME280;59408;51.032;9.410;2023-07-31T02:56:15;98575.22;;;15.05;87.39
71573;BME280;59408;51.032;9.410;2023-07-31T02:58:41;98585.00;;;15.02;86.94
71573;BME280;59408;51.032;9.410;2023-07-31T03:01:08;98590.53;;;15.06;87.23
71573;BME280;59408;51.032;9.410;2023-07-31T03:03:34;98570.16;;;15.07;87.14
71573;BME280;59408;51.032;9.410;2023-07-31T03:06:01;98578.00;;;15.08;87.28
71573;BME280;59408;51.032;9.410;2023-07-31T03:08:28;98575.69;;;15.11;87.34
71573;BME280;59408;51.032;9.410;2023-07-31T03:10:56;98563.47;;;15.08;87.36
71573;BME280;59408;51.032;9.410;2023-07-31T03:13:23;98569.34;;;15.06;87.53
71573;BME280;59408;51.032;9.410;2023-07-31T03:15:50;98563.06;;;15.06;87.51
71573;BME280;59408;51.032;9.410;2023-07-31T03:18:16;98566.56;;;15.03;87.70
71573;BME280;59408;51.032;9.410;2023-07-31T03:20:43;98568.16;;;15.04;87.81
71573;BME280;59408;51.032;9.410;2023-07-31T03:23:10;98574.81;;;15.03;87.95
71573;BME280;59408;51.032;9.410;2023-07-31T03:25:36;98567.34;;;15.03;87.84
71573;BME280;59408;51.032;9.410;2023-07-31T03:28:04;98570.50;;;15.02;88.75
71573;BME280;59408;51.032;9.410;2023-07-31T03:30:31;98568.13;;;15.00;88.38
71573;BME280;59408;51.032;9.410;2023-07-31T03:32:58;98578.72;;;14.98;89.12
71573;BME280;59408;51.032;9.410;2023-07-31T03:35:25;98576.38;;;15.00;88.79
71573;BME280;59408;51.032;9.410;2023-07-31T03:37:51;98588.53;;;14.99;89.39
71573;BME280;59408;51.032;9.410;2023-07-31T03:40:18;98581.88;;;15.00;89.50
71573;BME280;59408;51.032;9.410;2023-07-31T03:42:45;98583.81;;;15.00;89.63
71573;BME280;59408;51.032;9.410;2023-07-31T03:45:13;98572.03;;;14.99;89.43
71573;BME280;59408;51.032;9.410;2023-07-31T03:47:40;98585.78;;;14.99;90.34
71573;BME280;59408;51.032;9.410;2023-07-31T03:50:07;98580.66;;;14.98;90.42
71573;BME280;59408;51.032;9.410;2023-07-31T03:52:34;98580.66;;;14.98;90.65
71573;BME280;59408;51.032;9.410;2023-07-31T03:55:00;98581.44;;;14.98;91.35
71573;BME280;59408;51.032;9.410;2023-07-31T03:57:27;98578.28;;;14.96;91.30
71573;BME280;59408;51.032;9.410;2023-07-31T03:59:54;98578.72;;;14.98;91.39
71573;BME280;59408;51.032;9.410;2023-07-31T04:02:22;98569.72;;;15.01;91.15
71573;BME280;59408;51.032;9.410;2023-07-31T04:04:48;98571.69;;;15.04;90.97
71573;BME280;59408;51.032;9.410;2023-07-31T04:07:15;98567.41;;;15.07;90.86
71573;BME280;59408;51.032;9.410;2023-07-31T04:09:41;98572.16;;;15.10;90.65
71573;BME280;59408;51.032;9.410;2023-07-31T04:12:08;98571.38;;;15.13;90.41
71573;BME280;59408;51.032;9.410;2023-07-31T04:14:35;98561.53;;;15.12;89.96
71573;BME280;59408;51.032;9.410;2023-07-31T04:17:01;98567.44;;;15.14;90.20
71573;BME280;59408;51.032;9.410;2023-07-31T04:19:29;98568.63;;;15.13;90.64
71573;BME280;59408;51.032;9.410;2023-07-31T04:21:56;98564.28;;;15.12;91.07
71573;BME280;59408;51.032;9.410;2023-07-31T04:24:22;98565.06;;;15.13;91.31
71573;BME280;59408;51.032;9.410;2023-07-31T04:26:49;98565.06;;;15.09;92.05
71573;BME280;59408;51.032;9.410;2023-07-31T04:29:16;98572.88;;;15.07;92.65
71573;BME280;59408;51.032;9.410;2023-07-31T04:31:42;98563.06;;;15.06;93.70
71573;BME280;59408;51.032;9.410;2023-07-31T04:34:09;98564.22;;;15.01;95.18
71573;BME280;59408;51.032;9.410;2023-07-31T04:36:37;98562.50;;;14.86;96.62
71573;BME280;59408;51.032;9.410;2023-07-31T04:39:04;98571.91;;;14.85;97.86
71573;BME280;59408;51.032;9.410;2023-07-31T04:41:31;98563.19;;;14.76;98.61
71573;BME280;59408;51.032;9.410;2023-07-31T04:43:57;98576.13;;;14.72;99.09
71573;BME280;59408;51.032;9.410;2023-07-31T04:46:24;98567.09;;;14.71;99.69
71573;BME280;59408;51.032;9.410;2023-07-31T04:48:50;98568.66;;;14.73;99.77
71573;BME280;59408;51.032;9.410;2023-07-31T04:51:17;98564.34;;;14.71;100.00
71573;BME280;59408;51.032;9.410;2023-07-31T04:53:45;98567.50;;;14.74;100.00
71573;BME280;59408;51.032;9.410;2023-07-31T04:56:11;98574.16;;;14.76;100.00
71573;BME280;59408;51.032;9.410;2023-07-31T04:58:38;98567.50;;;14.77;100.00
71573;BME280;59408;51.032;9.410;2023-07-31T05:01:04;98571.81;;;14.75;100.00
71573;BME280;59408;51.032;9.410;2023-07-31T05:03:31;98571.03;;;14.74;100.00
71573;BME280;59408;51.032;9.410;2023-07-31T05:05:58;98570.25;;;14.74;100.00
71573;BME280;59408;51.032;9.410;2023-07-31T05:08:24;98566.34;;;14.75;100.00
71573;BME280;59408;51.032;9.410;2023-07-31T05:10:52;98567.88;;;14.72;100.00
71573;BME280;59408;51.032;9.410;2023-07-31T05:13:19;98564.34;;;14.75;100.00
71573;BME280;59408;51.032;9.410;2023-07-31T05:15:46;98563.97;;;14.73;100.00
71573;BME280;59408;51.032;9.410;2023-07-31T05:18:12;98565.53;;;14.74;100.00
71573;BME280;59408;51.032;9.410;2023-07-31T05:20:39;98560.84;;;14.75;100.00
71573;BME280;59408;51.032;9.410;2023-07-31T05:23:06;98563.59;;;14.75;100.00
71573;BME280;59408;51.032;9.410;2023-07-31T05:25:32;98557.31;;;14.78;100.00
71573;BME280;59408;51.032;9.410;2023-07-31T05:28:00;98561.22;;;14.77;100.00
71573;BME280;59408;51.032;9.410;2023-07-31T05:30:29;98552.25;;;14.80;100.00
71573;BME280;59408;51.032;9.410;2023-07-31T05:32:56;98556.16;;;14.79;100.00
71573;BME280;59408;51.032;9.410;2023-07-31T05:35:22;98555.69;;;14.69;100.00
71573;BME280;59408;51.032;9.410;2023-07-31T05:37:49;98563.44;;;14.60;100.00
71573;BME280;59408;51.032;9.410;2023-07-31T05:40:16;98558.69;;;14.57;100.00
71573;BME280;59408;51.032;9.410;2023-07-31T05:42:42;98555.47;;;14.52;100.00
71573;BME280;59408;51.032;9.410;2023-07-31T05:45:11;98556.28;;;14.52;100.00
71573;BME280;59408;51.032;9.410;2023-07-31T05:47:37;98558.22;;;14.52;100.00
71573;BME280;59408;51.032;9.410;2023-07-31T05:50:04;98553.47;;;14.49;100.00
71573;BME280;59408;51.032;9.410;2023-07-31T05:52:31;98555.06;;;14.50;100.00
71573;BME280;59408;51.032;9.410;2023-07-31T05:54:58;98544.13;;;14.53;100.00
71573;BME280;59408;51.032;9.410;2023-07-31T05:57:24;98540.66;;;14.56;100.00
71573;BME280;59408;51.032;9.410;2023-07-31T05:59:51;98539.91;;;14.59;100.00
71573;BME280;59408;51.032;9.410;2023-07-31T06:02:19;98537.56;;;14.61;100.00
71573;BME280;59408;51.032;9.410;2023-07-31T06:04:45;98540.72;;;14.63;100.00
71573;BME280;59408;51.032;9.410;2023-07-31T06:07:12;98531.34;;;14.68;100.00
71573;BME280;59408;51.032;9.410;2023-07-31T06:09:38;98527.47;;;14.73;100.00
71573;BME280;59408;51.032;9.410;2023-07-31T06:12:06;98524.78;;;14.80;100.00
71573;BME280;59408;51.032;9.410;2023-07-31T06:14:32;98519.34;;;14.83;100.00
71573;BME280;59408;51.032;9.410;2023-07-31T06:16:59;98519.41;;;14.94;99.77
71573;BME280;59408;51.032;9.410;2023-07-31T06:19:27;98527.31;;;14.99;100.00
71573;BME280;59408;51.032;9.410;2023-07-31T06:21:53;98524.19;;;15.00;99.01
71573;BME280;59408;51.032;9.410;2023-07-31T06:24:20;98537.53;;;15.02;99.19
71573;BME280;59408;51.032;9.410;2023-07-31T06:26:47;98531.28;;;15.05;99.88
71573;BME280;59408;51.032;9.410;2023-07-31T06:29:13;98529.72;;;15.07;99.78
71573;BME280;59408;51.032;9.410;2023-07-31T06:31:40;98522.75;;;15.17;99.69
71573;BME280;59408;51.032;9.410;2023-07-31T06:34:07;98520.44;;;15.26;98.74
71573;BME280;59408;51.032;9.410;2023-07-31T06:36:35;98519.31;;;15.34;94.57
71573;BME280;59408;51.032;9.410;2023-07-31T06:39:02;98519.38;;;15.45;94.80
71573;BME280;59408;51.032;9.410;2023-07-31T06:41:29;98519.47;;;15.56;94.09
71573;BME280;59408;51.032;9.410;2023-07-31T06:43:56;98510.47;;;15.62;93.00
71573;BME280;59408;51.032;9.410;2023-07-31T06:46:22;98514.03;;;15.66;92.88
71573;BME280;59408;51.032;9.410;2023-07-31T06:48:49;98515.25;;;15.72;91.95
71573;BME280;59408;51.032;9.410;2023-07-31T06:51:15;98516.84;;;15.73;92.05
71573;BME280;59408;51.032;9.410;2023-07-31T06:53:43;98524.28;;;15.76;91.87
71573;BME280;59408;51.032;9.410;2023-07-31T06:56:10;98516.44;;;15.78;91.44
71573;BME280;59408;51.032;9.410;2023-07-31T06:58:36;98513.34;;;15.83;92.76
71573;BME280;59408;51.032;9.410;2023-07-31T07:01:03;98515.31;;;15.83;91.97
71573;BME280;59408;51.032;9.410;2023-07-31T07:03:30;98521.19;;;15.85;92.64
71573;BME280;59408;51.032;9.410;2023-07-31T07:05:56;98504.25;;;15.76;94.81
71573;BME280;59408;51.032;9.410;2023-07-31T07:08:23;98519.59;;;15.80;97.38
71573;BME280;59408;51.032;9.410;2023-07-31T07:10:54;98512.53;;;15.79;96.25
71573;BME280;59408;51.032;9.410;2023-07-31T07:13:21;98515.31;;;15.83;97.61
71573;BME280;59408;51.032;9.410;2023-07-31T07:15:48;98517.66;;;15.88;95.66
71573;BME280;59408;51.032;9.410;2023-07-31T07:18:15;98516.13;;;15.91;95.74
71573;BME280;59408;51.032;9.410;2023-07-31T07:20:46;98512.97;;;15.92;94.90
71573;BME280;59408;51.032;9.410;2023-07-31T07:23:13;98505.59;;;16.10;96.19
71573;BME280;59408;51.032;9.410;2023-07-31T07:25:39;98507.19;;;16.33;95.54
71573;BME280;59408;51.032;9.410;2023-07-31T07:28:07;98505.66;;;16.42;93.31
71573;BME280;59408;51.032;9.410;2023-07-31T07:30:34;98506.06;;;16.44;92.82
71573;BME280;59408;51.032;9.410;2023-07-31T07:33:01;98516.66;;;16.49;92.66
71573;BME280;59408;51.032;9.410;2023-07-31T07:35:27;98511.16;;;16.46;92.00
71573;BME280;59408;51.032;9.410;2023-07-31T07:37:54;98509.56;;;16.41;91.51
71573;BME280;59408;51.032;9.410;2023-07-31T07:40:21;98520.56;;;16.27;92.88
71573;BME280;59408;51.032;9.410;2023-07-31T07:42:49;98510.72;;;16.23;94.02
71573;BME280;59408;51.032;9.410;2023-07-31T07:45:17;98510.69;;;16.15;93.40
71573;BME280;59408;51.032;9.410;2023-07-31T07:47:44;98511.09;;;16.17;94.50
71573;BME280;59408;51.032;9.410;2023-07-31T07:50:11;98519.75;;;16.23;93.99
71573;BME280;59408;51.032;9.410;2023-07-31T07:52:37;98504.06;;;16.27;92.06
71573;BME280;59408;51.032;9.410;2023-07-31T07:55:05;98503.28;;;16.37;92.05
71573;BME280;59408;51.032;9.410;2023-07-31T07:57:31;98482.06;;;16.52;91.52
71573;BME280;59408;51.032;9.410;2023-07-31T07:59:58;98494.66;;;16.53;90.38
71573;BME280;59408;51.032;9.410;2023-07-31T08:02:27;98496.63;;;16.59;91.56
71573;BME280;59408;51.032;9.410;2023-07-31T08:04:54;98500.59;;;16.62;90.31
71573;BME280;59408;51.032;9.410;2023-07-31T08:07:20;98498.19;;;16.61;89.22
71573;BME280;59408;51.032;9.410;2023-07-31T08:09:47;98489.53;;;16.58;89.78
71573;BME280;59408;51.032;9.410;2023-07-31T08:12:14;98488.75;;;16.62;89.28
71573;BME280;59408;51.032;9.410;2023-07-31T08:14:42;98481.72;;;16.78;90.85
71573;BME280;59408;51.032;9.410;2023-07-31T08:17:09;98467.97;;;16.75;88.73
71573;BME280;59408;51.032;9.410;2023-07-31T08:19:37;98474.66;;;16.74;87.22
71573;BME280;59408;51.032;9.410;2023-07-31T08:22:04;98464.78;;;16.76;90.55
71573;BME280;59408;51.032;9.410;2023-07-31T08:24:31;98464.41;;;16.71;88.37
71573;BME280;59408;51.032;9.410;2023-07-31T08:27:01;98460.03;;;16.59;89.27
71573;BME280;59408;51.032;9.410;2023-07-31T08:29:31;98461.63;;;16.46;89.98
71573;BME280;59408;51.032;9.410;2023-07-31T08:31:57;98473.41;;;16.36;91.13
71573;BME280;59408;51.032;9.410;2023-07-31T08:34:24;98467.88;;;16.32;91.65
71573;BME280;59408;51.032;9.410;2023-07-31T08:36:52;98471.81;;;16.28;93.67
71573;BME280;59408;51.032;9.410;2023-07-31T08:39:19;98474.19;;;16.29;93.50
71573;BME280;59408;51.032;9.410;2023-07-31T08:41:45;98472.22;;;16.30;94.68
71573;BME280;59408;51.032;9.410;2023-07-31T08:44:13;98465.50;;;16.24;95.28
71573;BME280;59408;51.032;9.410;2023-07-31T08:46:42;98471.44;;;16.36;98.00
71573;BME280;59408;51.032;9.410;2023-07-31T08:49:10;98469.09;;;16.38;94.81
71573;BME280;59408;51.032;9.410;2023-07-31T08:51:37;98471.44;;;16.61;95.73
71573;BME280;59408;51.032;9.410;2023-07-31T08:54:06;98477.38;;;16.77;95.26
71573;BME280;59408;51.032;9.410;2023-07-31T08:56:33;98473.44;;;16.85;94.23
71573;BME280;59408;51.032;9.410;2023-07-31T08:59:03;98481.72;;;17.00;92.32
71573;BME280;59408;51.032;9.410;2023-07-31T09:01:31;98474.63;;;17.09;91.19
71573;BME280;59408;51.032;9.410;2023-07-31T09:04:04;98472.16;;;17.54;88.46
71573;BME280;59408;51.032;9.410;2023-07-31T09:06:31;98481.16;;;17.76;85.71
71573;BME280;59408;51.032;9.410;2023-07-31T09:08:58;98471.69;;;17.84;86.78
71573;BME280;59408;51.032;9.410;2023-07-31T09:11:26;98474.81;;;17.93;84.97
71573;BME280;59408;51.032;9.410;2023-07-31T09:13:53;98472.13;;;17.72;83.46
71573;BME280;59408;51.032;9.410;2023-07-31T09:16:27;98470.19;;;17.51;84.47
71573;BME280;59408;51.032;9.410;2023-07-31T09:18:56;98478.91;;;17.35;83.03
71573;BME280;59408;51.032;9.410;2023-07-31T09:21:24;98456.44;;;17.33;86.54
71573;BME280;59408;51.032;9.410;2023-07-31T09:23:51;98478.13;;;17.38;85.70
71573;BME280;59408;51.032;9.410;2023-07-31T09:26:30;98472.19;;;17.32;84.76
71573;BME280;59408;51.032;9.410;2023-07-31T09:28:57;98467.91;;;17.28;85.44
71573;BME280;59408;51.032;9.410;2023-07-31T09:31:38;98469.09;;;17.09;85.97
71573;BME280;59408;51.032;9.410;2023-07-31T09:34:05;98456.50;;;16.94;87.57
71573;BME280;59408;51.032;9.410;2023-07-31T09:36:32;98462.84;;;16.73;88.10
71573;BME280;59408;51.032;9.410;2023-07-31T09:39:02;98461.66;;;16.64;89.66
71573;BME280;59408;51.032;9.410;2023-07-31T09:41:30;98455.34;;;16.63;91.82
71573;BME280;59408;51.032;9.410;2023-07-31T09:43:56;98461.63;;;16.56;91.41
71573;BME280;59408;51.032;9.410;2023-07-31T09:46:26;98465.16;;;16.50;92.18
71573;BME280;59408;51.032;9.410;2023-07-31T09:48:53;98462.78;;;16.45;91.46
71573;BME280;59408;51.032;9.410;2023-07-31T09:51:29;98471.03;;;16.41;91.79
71573;BME280;59408;51.032;9.410;2023-07-31T09:53:55;98464.75;;;16.41;92.76
71573;BME280;59408;51.032;9.410;2023-07-31T09:56:23;98456.50;;;16.48;92.69
71573;BME280;59408;51.032;9.410;2023-07-31T09:58:53;98462.78;;;16.52;92.31
71573;BME280;59408;51.032;9.410;2023-07-31T10:01:20;98452.22;;;16.65;94.92
71573;BME280;59408;51.032;9.410;2023-07-31T10:03:47;98446.31;;;16.73;92.86
71573;BME280;59408;51.032;9.410;2023-07-31T10:06:14;98443.97;;;16.75;90.27
71573;BME280;59408;51.032;9.410;2023-07-31T10:08:43;98452.56;;;16.95;93.61
71573;BME280;59408;51.032;9.410;2023-07-31T10:11:11;98441.56;;;16.88;90.68
71573;BME280;59408;51.032;9.410;2023-07-31T10:13:41;98441.56;;;16.88;91.75
71573;BME280;59408;51.032;9.410;2023-07-31T10:16:10;98436.47;;;16.90;89.99
71573;BME280;59408;51.032;9.410;2023-07-31T10:18:38;98440.38;;;17.03;88.16
71573;BME280;59408;51.032;9.410;2023-07-31T10:21:05;98429.34;;;17.07;89.58
71573;BME280;59408;51.032;9.410;2023-07-31T10:23:32;98433.66;;;17.04;87.88
71573;BME280;59408;51.032;9.410;2023-07-31T10:26:00;98432.13;;;17.00;87.98
71573;BME280;59408;51.032;9.410;2023-07-31T10:28:28;98429.34;;;17.03;88.77
71573;BME280;59408;51.032;9.410;2023-07-31T10:30:56;98428.94;;;17.19;87.99
71573;BME280;59408;51.032;9.410;2023-07-31T10:33:24;98434.03;;;17.27;88.63
71573;BME280;59408;51.032;9.410;2023-07-31T10:36:14;98430.06;;;17.36;86.54
71573;BME280;59408;51.032;9.410;2023-07-31T10:38:40;98428.84;;;17.40;86.55
71573;BME280;59408;51.032;9.410;2023-07-31T10:41:08;98414.69;;;17.38;87.21
71573;BME280;59408;51.032;9.410;2023-07-31T10:43:36;98410.72;;;17.43;85.85
71573;BME280;59408;51.032;9.410;2023-07-31T10:46:06;98420.19;;;17.42;85.74
71573;BME280;59408;51.032;9.410;2023-07-31T10:48:35;98421.34;;;17.51;84.66
71573;BME280;59408;51.032;9.410;2023-07-31T10:51:07;98423.72;;;17.42;84.75
71573;BME280;59408;51.032;9.410;2023-07-31T10:53:34;98436.81;;;17.17;85.33
71573;BME280;59408;51.032;9.410;2023-07-31T10:56:02;98428.16;;;17.15;86.95
71573;BME280;59408;51.032;9.410;2023-07-31T10:58:29;98428.88;;;17.33;87.59
71573;BME280;59408;51.032;9.410;2023-07-31T11:00:57;98411.13;;;17.41;85.71
71573;BME280;59408;51.032;9.410;2023-07-31T11:03:25;98428.47;;;17.42;87.11
71573;BME280;59408;51.032;9.410;2023-07-31T11:06:00;98408.69;;;17.68;86.44
71573;BME280;59408;51.032;9.410;2023-07-31T11:08:28;98411.34;;;17.93;83.91
71573;BME280;59408;51.032;9.410;2023-07-31T11:11:05;98398.34;;;18.93;80.45
71573;BME280;59408;51.032;9.410;2023-07-31T11:13:33;98398.03;;;19.22;78.08
71573;BME280;59408;51.032;9.410;2023-07-31T11:16:00;98405.75;;;19.41;78.82
71573;BME280;59408;51.032;9.410;2023-07-31T11:18:27;98385.44;;;19.17;78.99
71573;BME280;59408;51.032;9.410;2023-07-31T11:20:55;98396.41;;;18.90;77.08
71573;BME280;59408;51.032;9.410;2023-07-31T11:23:22;98396.47;;;18.83;76.87
71573;BME280;59408;51.032;9.410;2023-07-31T11:25:49;98385.22;;;18.60;76.92
71573;BME280;59408;51.032;9.410;2023-07-31T11:28:17;98395.56;;;18.49;80.15
71573;BME280;59408;51.032;9.410;2023-07-31T11:30:45;98401.41;;;18.02;80.95
71573;BME280;59408;51.032;9.410;2023-07-31T11:33:13;98411.09;;;17.59;82.44
71573;BME280;59408;51.032;9.410;2023-07-31T11:35:42;98411.47;;;17.54;84.51
71573;BME280;59408;51.032;9.410;2023-07-31T11:38:11;98409.13;;;17.59;84.23
71573;BME280;59408;51.032;9.410;2023-07-31T11:40:41;98404.03;;;17.47;85.43
71573;BME280;59408;51.032;9.410;2023-07-31T11:43:08;98400.91;;;17.38;86.59
71573;BME280;59408;51.032;9.410;2023-07-31T11:45:35;98401.69;;;17.42;87.37
71573;BME280;59408;51.032;9.410;2023-07-31T11:48:01;98389.06;;;17.41;86.48
71573;BME280;59408;51.032;9.410;2023-07-31T11:50:28;98386.34;;;17.38;85.79
71573;BME280;59408;51.032;9.410;2023-07-31T11:52:57;98391.03;;;17.48;85.67
71573;BME280;59408;51.032;9.410;2023-07-31T11:55:28;98394.94;;;17.61;85.76
71573;BME280;59408;51.032;9.410;2023-07-31T11:57:57;98392.53;;;17.66;83.12
71573;BME280;59408;51.032;9.410;2023-07-31T12:00:25;98387.78;;;17.74;84.07
71573;BME280;59408;51.032;9.410;2023-07-31T12:02:52;98392.06;;;17.82;83.97
71573;BME280;59408;51.032;9.410;2023-07-31T12:05:21;98388.94;;;17.80;83.96
71573;BME280;59408;51.032;9.410;2023-07-31T12:07:50;98388.09;;;17.87;82.09
71573;BME280;59408;51.032;9.410;2023-07-31T12:10:24;98381.22;;;18.13;82.39
71573;BME280;59408;51.032;9.410;2023-07-31T12:13:00;98382.09;;;18.02;81.21
71573;BME280;59408;51.032;9.410;2023-07-31T12:15:33;98375.03;;;17.94;82.18
71573;BME280;59408;51.032;9.410;2023-07-31T12:18:00;98369.94;;;17.93;81.93
71573;BME280;59408;51.032;9.410;2023-07-31T12:20:27;98370.34;;;17.88;82.02
71573;BME280;59408;51.032;9.410;2023-07-31T12:22:56;98376.19;;;18.00;82.40
71573;BME280;59408;51.032;9.410;2023-07-31T12:25:22;98362.34;;;18.08;82.66
71573;BME280;59408;51.032;9.410;2023-07-31T12:27:50;98365.81;;;18.15;82.11
71573;BME280;59408;51.032;9.410;2023-07-31T12:30:28;98359.44;;;18.25;80.53
71573;BME280;59408;51.032;9.410;2023-07-31T12:32:55;98352.53;;;18.51;80.88
71573;BME280;59408;51.032;9.410;2023-07-31T12:35:22;98351.97;;;18.70;78.98
71573;BME280;59408;51.032;9.410;2023-07-31T12:37:48;98356.88;;;18.52;78.90
71573;BME280;59408;51.032;9.410;2023-07-31T12:40:15;98349.38;;;18.53;78.52
71573;BME280;59408;51.032;9.410;2023-07-31T12:42:49;98338.47;;;18.31;79.62
71573;BME280;59408;51.032;9.410;2023-07-31T12:45:15;98342.09;;;18.25;79.91
71573;BME280;59408;51.032;9.410;2023-07-31T12:47:43;98351.50;;;18.31;80.07
71573;BME280;59408;51.032;9.410;2023-07-31T12:50:10;98321.56;;;18.29;81.16
71573;BME280;59408;51.032;9.410;2023-07-31T12:52:37;98332.50;;;18.40;79.59
71573;BME280;59408;51.032;9.410;2023-07-31T12:55:04;98333.59;;;18.53;79.80
71573;BME280;59408;51.032;9.410;2023-07-31T12:57:31;98328.84;;;18.54;79.79
71573;BME280;59408;51.032;9.410;2023-07-31T12:59:58;98324.97;;;18.48;77.66
71573;BME280;59408;51.032;9.410;2023-07-31T13:02:25;98327.66;;;18.55;78.95